sensor_id;sensor_type;location;lat;lon;timestamp;P1;durP1;ratioP1;P2;durP2;ratioP2
29906;SDS011;16776;50.958;10.994;2022-09-28T00:02:13;0.10;;;0.10;;
29906;SDS011;16776;50.958;10.994;2022-09-28T00:04:39;1.55;;;0.20;;
29906;SDS011;16776;50.958;10.994;2022-09-28T00:07:06;0.30;;;0.30;;
29906;SDS011;16776;50.958;10.994;2022-09-28T00:09:32;0.20;;;0.20;;
29906;SDS011;16776;50.958;10.994;2022-09-28T00:11:59;0.13;;;0.13;;
29906;SDS011;16776;50.958;10.994;2022-09-28T00:14:25;0.35;;;0.20;;
29906;SDS011;16776;50.958;10.994;2022-09-28T00:16:52;0.10;;;0.10;;
29906;SDS011;16776;50.958;10.994;2022-09-28T00:19:20;0.08;;;0.08;;
29906;SDS011;16776;50.958;10.994;2022-09-28T00:21:46;0.10;;;0.10;;
29906;SDS011;16776;50.958;10.994;2022-09-28T00:24:13;0.10;;;0.10;;
29906;SDS011;16776;50.958;10.994;2022-09-28T00:26:40;0.10;;;0.10;;
29906;SDS011;16776;50.958;10.994;2022-09-28T00:29:13;0.17;;;0.10;;
29906;SDS011;16776;50.958;10.994;2022-09-28T00:34:08;0.03;;;0.03;;
29906;SDS011;16776;50.958;10.994;2022-09-28T00:36:36;1.08;;;0.10;;
29906;SDS011;16776;50.958;10.994;2022-09-28T00:39:03;0.10;;;0.10;;
29906;SDS011;16776;50.958;10.994;2022-09-28T00:41:31;0.13;;;0.10;;
29906;SDS011;16776;50.958;10.994;2022-09-28T00:46:59;0.30;;;0.10;;
29906;SDS011;16776;50.958;10.994;2022-09-28T00:49:34;0.15;;;0.10;;
29906;SDS011;16776;50.958;10.994;2022-09-28T00:52:08;0.25;;;0.10;;
29906;SDS011;16776;50.958;10.994;2022-09-28T00:54:38;0.10;;;0.10;;
29906;SDS011;16776;50.958;10.994;2022-09-28T00:57:07;0.10;;;0.10;;
29906;SDS011;16776;50.958;10.994;2022-09-28T00:59:34;0.68;;;0.20;;
29906;SDS011;16776;50.958;10.994;2022-09-28T01:02:01;0.20;;;0.20;;
29906;SDS011;16776;50.958;10.994;2022-09-28T01:04:28;0.32;;;0.15;;
29906;SDS011;16776;50.958;10.994;2022-09-28T01:06:56;0.20;;;0.20;;
29906;SDS011;16776;50.958;10.994;2022-09-28T01:09:25;1.40;;;0.20;;
29906;SDS011;16776;50.958;10.994;2022-09-28T01:11:52;0.10;;;0.10;;
29906;SDS011;16776;50.958;10.994;2022-09-28T01:14:19;0.20;;;0.20;;
29906;SDS011;16776;50.958;10.994;2022-09-28T01:16:49;1.00;;;0.20;;
29906;SDS011;16776;50.958;10.994;2022-09-28T01:19:27;0.20;;;0.20;;
29906;SDS011;16776;50.958;10.994;2022-09-28T01:22:07;1.45;;;0.52;;
29906;SDS011;16776;50.958;10.994;2022-09-28T01:24:46;0.60;;;0.20;;
29906;SDS011;16776;50.958;10.994;2022-09-28T01:27:15;0.20;;;0.20;;
29906;SDS011;16776;50.958;10.994;2022-09-28T01:29:53;0.30;;;0.22;;
29906;SDS011;16776;50.958;10.994;2022-09-28T01:32:33;0.50;;;0.15;;
29906;SDS011;16776;50.958;10.994;2022-09-28T01:35:04;0.40;;;0.30;;
29906;SDS011;16776;50.958;10.994;2022-09-28T01:37:37;0.20;;;0.20;;
29906;SDS011;16776;50.958;10.994;2022-09-28T01:40:09;0.20;;;0.20;;
29906;SDS011;16776;50.958;10.994;2022-09-28T01:42:41;0.43;;;0.20;;
29906;SDS011;16776;50.958;10.994;2022-09-28T01:45:11;0.30;;;0.30;;
29906;SDS011;16776;50.958;10.994;2022-09-28T01:47:42;0.32;;;0.32;;
29906;SDS011;16776;50.958;10.994;2022-09-28T01:50:12;0.35;;;0.22;;
29906;SDS011;16776;50.958;10.994;2022-09-28T01:52:43;1.40;;;0.38;;
29906;SDS011;16776;50.958;10.994;2022-09-28T01:55:17;0.55;;;0.20;;
29906;SDS011;16776;50.958;10.994;2022-09-28T01:57:53;1.20;;;0.40;;
29906;SDS011;16776;50.958;10.994;2022-09-28T02:00:23;0.40;;;0.20;;
29906;SDS011;16776;50.958;10.994;2022-09-28T02:02:52;0.30;;;0.28;;
29906;SDS011;16776;50.958;10.994;2022-09-28T02:05:22;0.25;;;0.25;;
29906;SDS011;16776;50.958;10.994;2022-09-28T02:07:55;0.30;;;0.30;;
29906;SDS011;16776;50.958;10.994;2022-09-28T02:10:28;0.20;;;0.20;;
29906;SDS011;16776;50.958;10.994;2022-09-28T02:13:03;0.40;;;0.40;;
29906;SDS011;16776;50.958;10.994;2022-09-28T02:15:35;0.95;;;0.30;;
29906;SDS011;16776;50.958;10.994;2022-09-28T02:18:05;0.13;;;0.13;;
29906;SDS011;16776;50.958;10.994;2022-09-28T02:20:33;0.20;;;0.20;;
29906;SDS011;16776;50.958;10.994;2022-09-28T02:23:01;0.20;;;0.20;;
29906;SDS011;16776;50.958;10.994;2022-09-28T02:25:31;0.32;;;0.32;;
29906;SDS011;16776;50.958;10.994;2022-09-28T02:28:03;0.63;;;0.30;;
29906;SDS011;16776;50.958;10.994;2022-09-28T02:30:32;0.28;;;0.28;;
29906;SDS011;16776;50.958;10.994;2022-09-28T02:33:01;0.95;;;0.20;;
29906;SDS011;16776;50.958;10.994;2022-09-28T02:38:00;0.40;;;0.40;;
29906;SDS011;16776;50.958;10.994;2022-09-28T02:40:28;0.20;;;0.20;;
29906;SDS011;16776;50.958;10.994;2022-09-28T02:42:59;0.60;;;0.30;;
29906;SDS011;16776;50.958;10.994;2022-09-28T02:45:37;0.35;;;0.35;;
29906;SDS011;16776;50.958;10.994;2022-09-28T02:51:19;0.38;;;0.38;;
29906;SDS011;16776;50.958;10.994;2022-09-28T02:54:00;0.40;;;0.40;;
29906;SDS011;16776;50.958;10.994;2022-09-28T02:56:48;0.40;;;0.40;;
29906;SDS011;16776;50.958;10.994;2022-09-28T02:59:29;0.77;;;0.50;;
29906;SDS011;16776;50.958;10.994;2022-09-28T03:07:09;0.52;;;0.30;;
29906;SDS011;16776;50.958;10.994;2022-09-28T03:09:42;0.40;;;0.40;;
29906;SDS011;16776;50.958;10.994;2022-09-28T03:14:43;1.35;;;0.50;;
29906;SDS011;16776;50.958;10.994;2022-09-28T03:17:11;1.15;;;0.40;;
29906;SDS011;16776;50.958;10.994;2022-09-28T03:19:38;0.45;;;0.38;;
29906;SDS011;16776;50.958;10.994;2022-09-28T03:22:04;0.70;;;0.70;;
29906;SDS011;16776;50.958;10.994;2022-09-28T03:24:32;3.40;;;0.60;;
29906;SDS011;16776;50.958;10.994;2022-09-28T03:26:58;0.50;;;0.50;;
29906;SDS011;16776;50.958;10.994;2022-09-28T03:29:24;0.40;;;0.40;;
29906;SDS011;16776;50.958;10.994;2022-09-28T03:31:51;0.55;;;0.55;;
29906;SDS011;16776;50.958;10.994;2022-09-28T03:34:19;0.50;;;0.50;;
29906;SDS011;16776;50.958;10.994;2022-09-28T03:36:45;0.45;;;0.45;;
29906;SDS011;16776;50.958;10.994;2022-09-28T03:39:11;0.68;;;0.68;;
29906;SDS011;16776;50.958;10.994;2022-09-28T03:41:38;1.05;;;0.52;;
29906;SDS011;16776;50.958;10.994;2022-09-28T03:44:07;0.73;;;0.65;;
29906;SDS011;16776;50.958;10.994;2022-09-28T03:46:34;0.50;;;0.50;;
29906;SDS011;16776;50.958;10.994;2022-09-28T03:49:00;0.63;;;0.52;;
29906;SDS011;16776;50.958;10.994;2022-09-28T03:51:28;0.38;;;0.38;;
29906;SDS011;16776;50.958;10.994;2022-09-28T03:53:55;0.77;;;0.60;;
29906;SDS011;16776;50.958;10.994;2022-09-28T03:56:22;0.57;;;0.57;;
29906;SDS011;16776;50.958;10.994;2022-09-28T03:58:48;0.70;;;0.70;;
29906;SDS011;16776;50.958;10.994;2022-09-28T04:01:15;1.95;;;0.68;;
29906;SDS011;16776;50.958;10.994;2022-09-28T04:03:44;2.17;;;0.60;;
29906;SDS011;16776;50.958;10.994;2022-09-28T04:06:12;0.47;;;0.47;;
29906;SDS011;16776;50.958;10.994;2022-09-28T04:08:43;0.63;;;0.63;;
29906;SDS011;16776;50.958;10.994;2022-09-28T04:11:09;1.00;;;0.50;;
29906;SDS011;16776;50.958;10.994;2022-09-28T04:13:35;0.43;;;0.43;;
29906;SDS011;16776;50.958;10.994;2022-09-28T04:16:02;0.45;;;0.45;;
29906;SDS011;16776;50.958;10.994;2022-09-28T04:18:29;0.40;;;0.40;;
29906;SDS011;16776;50.958;10.994;2022-09-28T04:20:57;0.65;;;0.40;;
29906;SDS011;16776;50.958;10.994;2022-09-28T04:23:27;1.17;;;0.45;;
29906;SDS011;16776;50.958;10.994;2022-09-28T04:25:55;1.55;;;0.70;;
29906;SDS011;16776;50.958;10.994;2022-09-28T04:28:22;0.60;;;0.60;;
29906;SDS011;16776;50.958;10.994;2022-09-28T04:31:07;0.70;;;0.68;;
29906;SDS011;16776;50.958;10.994;2022-09-28T04:33:35;2.38;;;1.50;;
29906;SDS011;16776;50.958;10.994;2022-09-28T04:36:02;0.45;;;0.45;;
29906;SDS011;16776;50.958;10.994;2022-09-28T04:38:29;0.88;;;0.55;;
29906;SDS011;16776;50.958;10.994;2022-09-28T04:40:56;0.70;;;0.50;;
29906;SDS011;16776;50.958;10.994;2022-09-28T04:43:23;0.40;;;0.40;;
29906;SDS011;16776;50.958;10.994;2022-09-28T04:45:50;0.47;;;0.47;;
29906;SDS011;16776;50.958;10.994;2022-09-28T04:48:16;0.30;;;0.30;;
29906;SDS011;16776;50.958;10.994;2022-09-28T04:50:43;0.65;;;0.20;;
29906;SDS011;16776;50.958;10.994;2022-09-28T04:53:09;0.38;;;0.38;;
29906;SDS011;16776;50.958;10.994;2022-09-28T04:55:37;0.43;;;0.28;;
29906;SDS011;16776;50.958;10.994;2022-09-28T04:58:05;0.20;;;0.20;;
29906;SDS011;16776;50.958;10.994;2022-09-28T05:00:31;0.28;;;0.20;;
29906;SDS011;16776;50.958;10.994;2022-09-28T05:02:59;0.22;;;0.22;;
29906;SDS011;16776;50.958;10.994;2022-09-28T05:05:26;0.20;;;0.10;;
29906;SDS011;16776;50.958;10.994;2022-09-28T05:07:55;1.48;;;0.20;;
29906;SDS011;16776;50.958;10.994;2022-09-28T05:10:23;0.13;;;0.13;;
29906;SDS011;16776;50.958;10.994;2022-09-28T05:12:51;0.10;;;0.10;;
29906;SDS011;16776;50.958;10.994;2022-09-28T05:15:19;0.52;;;0.10;;
29906;SDS011;16776;50.958;10.994;2022-09-28T05:17:45;0.30;;;0.10;;
29906;SDS011;16776;50.958;10.994;2022-09-28T05:20:12;0.98;;;0.10;;
29906;SDS011;16776;50.958;10.994;2022-09-28T05:22:38;0.10;;;0.10;;
29906;SDS011;16776;50.958;10.994;2022-09-28T05:25:05;0.00;;;0.00;;
29906;SDS011;16776;50.958;10.994;2022-09-28T05:27:32;0.00;;;0.00;;
29906;SDS011;16776;50.958;10.994;2022-09-28T05:29:58;0.10;;;0.10;;
29906;SDS011;16776;50.958;10.994;2022-09-28T05:32:26;0.10;;;0.10;;
29906;SDS011;16776;50.958;10.994;2022-09-28T05:34:52;0.10;;;0.10;;
29906;SDS011;16776;50.958;10.994;2022-09-28T05:37:22;0.08;;;0.08;;
29906;SDS011;16776;50.958;10.994;2022-09-28T05:39:49;0.20;;;0.17;;
29906;SDS011;16776;50.958;10.994;2022-09-28T05:42:15;0.25;;;0.10;;
29906;SDS011;16776;50.958;10.994;2022-09-28T05:44:43;0.10;;;0.10;;
29906;SDS011;16776;50.958;10.994;2022-09-28T05:47:09;0.10;;;0.10;;
29906;SDS011;16776;50.958;10.994;2022-09-28T05:49:37;0.98;;;0.13;;
29906;SDS011;16776;50.958;10.994;2022-09-28T05:52:06;0.10;;;0.10;;
29906;SDS011;16776;50.958;10.994;2022-09-28T05:54:33;0.20;;;0.20;;
29906;SDS011;16776;50.958;10.994;2022-09-28T05:56:59;0.10;;;0.10;;
29906;SDS011;16776;50.958;10.994;2022-09-28T05:59:26;0.13;;;0.13;;
29906;SDS011;16776;50.958;10.994;2022-09-28T06:01:54;0.20;;;0.20;;
29906;SDS011;16776;50.958;10.994;2022-09-28T06:04:20;0.28;;;0.20;;
29906;SDS011;16776;50.958;10.994;2022-09-28T06:06:48;0.20;;;0.20;;
29906;SDS011;16776;50.958;10.994;2022-09-28T06:09:15;0.38;;;0.10;;
29906;SDS011;16776;50.958;10.994;2022-09-28T06:11:41;0.43;;;0.20;;
29906;SDS011;16776;50.958;10.994;2022-09-28T06:14:08;0.10;;;0.10;;
29906;SDS011;16776;50.958;10.994;2022-09-28T06:16:34;0.75;;;0.20;;
29906;SDS011;16776;50.958;10.994;2022-09-28T06:19:01;0.55;;;0.28;;
29906;SDS011;16776;50.958;10.994;2022-09-28T06:21:27;0.30;;;0.30;;
29906;SDS011;16776;50.958;10.994;2022-09-28T06:23:55;2.47;;;0.32;;
29906;SDS011;16776;50.958;10.994;2022-09-28T06:26:22;0.30;;;0.30;;
29906;SDS011;16776;50.958;10.994;2022-09-28T06:28:48;0.40;;;0.30;;
29906;SDS011;16776;50.958;10.994;2022-09-28T06:31:15;0.40;;;0.40;;
29906;SDS011;16776;50.958;10.994;2022-09-28T06:33:42;0.40;;;0.40;;
29906;SDS011;16776;50.958;10.994;2022-09-28T06:36:08;0.30;;;0.30;;
29906;SDS011;16776;50.958;10.994;2022-09-28T06:38:34;0.20;;;0.20;;
29906;SDS011;16776;50.958;10.994;2022-09-28T06:41:03;0.30;;;0.20;;
29906;SDS011;16776;50.958;10.994;2022-09-28T06:43:30;1.35;;;0.20;;
29906;SDS011;16776;50.958;10.994;2022-09-28T06:45:57;0.80;;;0.20;;
29906;SDS011;16776;50.958;10.994;2022-09-28T06:48:24;0.20;;;0.20;;
29906;SDS011;16776;50.958;10.994;2022-09-28T06:50:53;0.10;;;0.10;;
29906;SDS011;16776;50.958;10.994;2022-09-28T06:53:19;0.20;;;0.10;;
29906;SDS011;16776;50.958;10.994;2022-09-28T06:55:47;0.15;;;0.10;;
29906;SDS011;16776;50.958;10.994;2022-09-28T06:58:15;0.10;;;0.10;;
29906;SDS011;16776;50.958;10.994;2022-09-28T07:00:44;0.10;;;0.10;;
29906;SDS011;16776;50.958;10.994;2022-09-28T07:03:12;0.10;;;0.10;;
29906;SDS011;16776;50.958;10.994;2022-09-28T07:05:41;0.13;;;0.13;;
29906;SDS011;16776;50.958;10.994;2022-09-28T07:08:09;0.10;;;0.10;;
29906;SDS011;16776;50.958;10.994;2022-09-28T07:10:39;0.13;;;0.08;;
29906;SDS011;16776;50.958;10.994;2022-09-28T07:13:08;0.10;;;0.10;;
29906;SDS011;16776;50.958;10.994;2022-09-28T07:15:36;0.10;;;0.10;;
29906;SDS011;16776;50.958;10.994;2022-09-28T07:18:03;0.10;;;0.10;;
29906;SDS011;16776;50.958;10.994;2022-09-28T07:20:31;0.20;;;0.20;;
29906;SDS011;16776;50.958;10.994;2022-09-28T07:22:59;0.10;;;0.10;;
29906;SDS011;16776;50.958;10.994;2022-09-28T07:25:30;0.55;;;0.35;;
29906;SDS011;16776;50.958;10.994;2022-09-28T07:28:01;0.35;;;0.20;;
29906;SDS011;16776;50.958;10.994;2022-09-28T07:30:30;0.20;;;0.20;;
29906;SDS011;16776;50.958;10.994;2022-09-28T07:32:59;0.90;;;0.90;;
29906;SDS011;16776;50.958;10.994;2022-09-28T07:35:26;0.40;;;0.10;;
29906;SDS011;16776;50.958;10.994;2022-09-28T07:37:58;0.17;;;0.17;;
29906;SDS011;16776;50.958;10.994;2022-09-28T07:40:26;0.30;;;0.17;;
29906;SDS011;16776;50.958;10.994;2022-09-28T07:43:11;0.20;;;0.20;;
29906;SDS011;16776;50.958;10.994;2022-09-28T07:45:38;0.13;;;0.13;;
29906;SDS011;16776;50.958;10.994;2022-09-28T07:48:06;0.10;;;0.10;;
29906;SDS011;16776;50.958;10.994;2022-09-28T07:50:33;0.20;;;0.20;;
29906;SDS011;16776;50.958;10.994;2022-09-28T07:52:59;0.20;;;0.20;;
29906;SDS011;16776;50.958;10.994;2022-09-28T07:55:26;0.10;;;0.10;;
29906;SDS011;16776;50.958;10.994;2022-09-28T07:57:53;0.20;;;0.17;;
29906;SDS011;16776;50.958;10.994;2022-09-28T08:00:20;1.00;;;0.20;;
29906;SDS011;16776;50.958;10.994;2022-09-28T08:02:46;0.13;;;0.13;;
29906;SDS011;16776;50.958;10.994;2022-09-28T08:05:14;0.10;;;0.10;;
29906;SDS011;16776;50.958;10.994;2022-09-28T08:07:41;0.22;;;0.20;;
29906;SDS011;16776;50.958;10.994;2022-09-28T08:10:08;0.52;;;0.20;;
29906;SDS011;16776;50.958;10.994;2022-09-28T08:12:34;0.10;;;0.10;;
29906;SDS011;16776;50.958;10.994;2022-09-28T08:15:05;0.10;;;0.10;;
29906;SDS011;16776;50.958;10.994;2022-09-28T08:17:35;0.20;;;0.10;;
29906;SDS011;16776;50.958;10.994;2022-09-28T08:20:02;0.10;;;0.10;;
29906;SDS011;16776;50.958;10.994;2022-09-28T08:22:47;0.13;;;0.13;;
29906;SDS011;16776;50.958;10.994;2022-09-28T08:25:14;0.30;;;0.20;;
29906;SDS011;16776;50.958;10.994;2022-09-28T08:27:40;0.40;;;0.40;;
29906;SDS011;16776;50.958;10.994;2022-09-28T08:30:09;0.20;;;0.13;;
29906;SDS011;16776;50.958;10.994;2022-09-28T08:32:36;0.68;;;0.30;;
29906;SDS011;16776;50.958;10.994;2022-09-28T08:35:03;0.45;;;0.20;;
29906;SDS011;16776;50.958;10.994;2022-09-28T08:37:30;0.10;;;0.10;;
29906;SDS011;16776;50.958;10.994;2022-09-28T08:39:58;0.43;;;0.20;;
29906;SDS011;16776;50.958;10.994;2022-09-28T08:42:28;0.10;;;0.10;;
29906;SDS011;16776;50.958;10.994;2022-09-28T08:45:04;0.00;;;0.00;;
29906;SDS011;16776;50.958;10.994;2022-09-28T08:50:19;0.10;;;0.00;;
29906;SDS011;16776;50.958;10.994;2022-09-28T08:52:52;0.00;;;0.00;;
29906;SDS011;16776;50.958;10.994;2022-09-28T08:55:25;0.10;;;0.10;;
29906;SDS011;16776;50.958;10.994;2022-09-28T08:57:56;0.00;;;0.00;;
29906;SDS011;16776;50.958;10.994;2022-09-28T09:00:30;0.10;;;0.10;;
29906;SDS011;16776;50.958;10.994;2022-09-28T09:02:58;0.00;;;0.00;;
29906;SDS011;16776;50.958;10.994;2022-09-28T09:05:34;0.10;;;0.10;;
29906;SDS011;16776;50.958;10.994;2022-09-28T09:08:20;0.00;;;0.00;;
29906;SDS011;16776;50.958;10.994;2022-09-28T09:11:01;0.20;;;0.20;;
29906;SDS011;16776;50.958;10.994;2022-09-28T09:13:45;0.10;;;0.10;;
29906;SDS011;16776;50.958;10.994;2022-09-28T09:16:31;0.10;;;0.10;;
29906;SDS011;16776;50.958;10.994;2022-09-28T09:19:09;0.00;;;0.00;;
29906;SDS011;16776;50.958;10.994;2022-09-28T09:21:41;0.10;;;0.10;;
29906;SDS011;16776;50.958;10.994;2022-09-28T09:24:17;0.20;;;0.10;;
29906;SDS011;16776;50.958;10.994;2022-09-28T09:26:54;0.10;;;0.10;;
29906;SDS011;16776;50.958;10.994;2022-09-28T09:29:30;0.10;;;0.10;;
29906;SDS011;16776;50.958;10.994;2022-09-28T09:32:10;0.38;;;0.13;;
29906;SDS011;16776;50.958;10.994;2022-09-28T09:37:57;0.20;;;0.20;;
29906;SDS011;16776;50.958;10.994;2022-09-28T09:40:40;0.20;;;0.17;;
29906;SDS011;16776;50.958;10.994;2022-09-28T09:43:31;0.15;;;0.15;;
29906;SDS011;16776;50.958;10.994;2022-09-28T09:46:10;0.20;;;0.20;;
29906;SDS011;16776;50.958;10.994;2022-09-28T09:48:44;0.10;;;0.10;;
29906;SDS011;16776;50.958;10.994;2022-09-28T09:51:15;0.52;;;0.30;;
29906;SDS011;16776;50.958;10.994;2022-09-28T09:53:48;0.30;;;0.25;;
29906;SDS011;16776;50.958;10.994;2022-09-28T09:56:20;0.20;;;0.20;;
29906;SDS011;16776;50.958;10.994;2022-09-28T09:58:54;0.20;;;0.17;;
29906;SDS011;16776;50.958;10.994;2022-09-28T10:01:29;1.73;;;0.20;;
29906;SDS011;16776;50.958;10.994;2022-09-28T10:03:59;0.35;;;0.30;;
29906;SDS011;16776;50.958;10.994;2022-09-28T10:06:33;0.47;;;0.30;;
29906;SDS011;16776;50.958;10.994;2022-09-28T10:09:03;0.50;;;0.25;;
29906;SDS011;16776;50.958;10.994;2022-09-28T10:11:33;0.10;;;0.10;;
29906;SDS011;16776;50.958;10.994;2022-09-28T10:14:07;0.30;;;0.20;;
29906;SDS011;16776;50.958;10.994;2022-09-28T10:16:38;0.20;;;0.10;;
29906;SDS011;16776;50.958;10.994;2022-09-28T10:19:06;0.20;;;0.20;;
29906;SDS011;16776;50.958;10.994;2022-09-28T10:21:34;0.85;;;0.20;;
29906;SDS011;16776;50.958;10.994;2022-09-28T10:24:04;0.47;;;0.17;;
29906;SDS011;16776;50.958;10.994;2022-09-28T10:26:38;1.10;;;0.20;;
29906;SDS011;16776;50.958;10.994;2022-09-28T10:29:11;0.30;;;0.20;;
29906;SDS011;16776;50.958;10.994;2022-09-28T10:31:40;1.40;;;0.10;;
29906;SDS011;16776;50.958;10.994;2022-09-28T10:34:09;1.48;;;0.30;;
29906;SDS011;16776;50.958;10.994;2022-09-28T10:36:43;0.30;;;0.30;;
29906;SDS011;16776;50.958;10.994;2022-09-28T10:42:02;0.52;;;0.20;;
29906;SDS011;16776;50.958;10.994;2022-09-28T10:44:34;0.20;;;0.20;;
29906;SDS011;16776;50.958;10.994;2022-09-28T10:47:14;0.30;;;0.30;;
29906;SDS011;16776;50.958;10.994;2022-09-28T10:49:43;0.20;;;0.20;;
29906;SDS011;16776;50.958;10.994;2022-09-28T10:52:28;0.32;;;0.30;;
29906;SDS011;16776;50.958;10.994;2022-09-28T10:54:57;0.30;;;0.30;;
29906;SDS011;16776;50.958;10.994;2022-09-28T10:57:27;0.47;;;0.30;;
29906;SDS011;16776;50.958;10.994;2022-09-28T11:00:00;0.30;;;0.30;;
29906;SDS011;16776;50.958;10.994;2022-09-28T11:02:28;0.38;;;0.32;;
29906;SDS011;16776;50.958;10.994;2022-09-28T11:04:58;1.38;;;0.30;;
29906;SDS011;16776;50.958;10.994;2022-09-28T11:07:27;0.43;;;0.40;;
29906;SDS011;16776;50.958;10.994;2022-09-28T11:09:56;0.30;;;0.30;;
29906;SDS011;16776;50.958;10.994;2022-09-28T11:12:23;0.30;;;0.30;;
29906;SDS011;16776;50.958;10.994;2022-09-28T11:14:56;0.30;;;0.30;;
29906;SDS011;16776;50.958;10.994;2022-09-28T11:17:28;0.38;;;0.32;;
29906;SDS011;16776;50.958;10.994;2022-09-28T11:19:55;1.15;;;0.15;;
29906;SDS011;16776;50.958;10.994;2022-09-28T11:22:24;0.68;;;0.40;;
29906;SDS011;16776;50.958;10.994;2022-09-28T11:25:13;1.45;;;0.40;;
29906;SDS011;16776;50.958;10.994;2022-09-28T11:27:54;0.40;;;0.40;;
29906;SDS011;16776;50.958;10.994;2022-09-28T11:30:24;1.17;;;0.45;;
29906;SDS011;16776;50.958;10.994;2022-09-28T11:32:55;0.40;;;0.40;;
29906;SDS011;16776;50.958;10.994;2022-09-28T11:35:30;0.50;;;0.50;;
29906;SDS011;16776;50.958;10.994;2022-09-28T11:38:25;0.40;;;0.40;;
29906;SDS011;16776;50.958;10.994;2022-09-28T11:41:01;0.52;;;0.43;;
29906;SDS011;16776;50.958;10.994;2022-09-28T11:43:44;0.45;;;0.45;;
29906;SDS011;16776;50.958;10.994;2022-09-28T11:46:24;0.40;;;0.40;;
29906;SDS011;16776;50.958;10.994;2022-09-28T11:49:00;1.05;;;0.43;;
29906;SDS011;16776;50.958;10.994;2022-09-28T11:51:34;0.20;;;0.20;;
29906;SDS011;16776;50.958;10.994;2022-09-28T11:54:08;0.30;;;0.30;;
29906;SDS011;16776;50.958;10.994;2022-09-28T11:56:40;0.52;;;0.45;;
29906;SDS011;16776;50.958;10.994;2022-09-28T11:59:10;0.60;;;0.40;;
29906;SDS011;16776;50.958;10.994;2022-09-28T12:01:42;0.73;;;0.40;;
29906;SDS011;16776;50.958;10.994;2022-09-28T12:04:15;0.95;;;0.47;;
29906;SDS011;16776;50.958;10.994;2022-09-28T12:06:48;0.52;;;0.52;;
29906;SDS011;16776;50.958;10.994;2022-09-28T12:09:18;0.45;;;0.45;;
29906;SDS011;16776;50.958;10.994;2022-09-28T12:11:48;0.47;;;0.47;;
29906;SDS011;16776;50.958;10.994;2022-09-28T12:14:19;0.95;;;0.57;;
29906;SDS011;16776;50.958;10.994;2022-09-28T12:16:54;1.10;;;0.60;;
29906;SDS011;16776;50.958;10.994;2022-09-28T12:19:28;0.30;;;0.30;;
29906;SDS011;16776;50.958;10.994;2022-09-28T12:21:58;0.40;;;0.40;;
29906;SDS011;16776;50.958;10.994;2022-09-28T12:24:31;0.13;;;0.13;;
29906;SDS011;16776;50.958;10.994;2022-09-28T12:27:03;0.30;;;0.30;;
29906;SDS011;16776;50.958;10.994;2022-09-28T12:29:34;0.30;;;0.25;;
29906;SDS011;16776;50.958;10.994;2022-09-28T12:32:08;0.30;;;0.30;;
29906;SDS011;16776;50.958;10.994;2022-09-28T12:34:40;0.20;;;0.20;;
29906;SDS011;16776;50.958;10.994;2022-09-28T12:37:11;0.20;;;0.20;;
29906;SDS011;16776;50.958;10.994;2022-09-28T12:39:52;0.52;;;0.30;;
29906;SDS011;16776;50.958;10.994;2022-09-28T12:45:10;0.25;;;0.25;;
29906;SDS011;16776;50.958;10.994;2022-09-28T12:48:04;0.15;;;0.15;;
29906;SDS011;16776;50.958;10.994;2022-09-28T12:50:44;0.20;;;0.20;;
29906;SDS011;16776;50.958;10.994;2022-09-28T12:53:26;0.17;;;0.17;;
29906;SDS011;16776;50.958;10.994;2022-09-28T12:56:10;0.20;;;0.20;;
29906;SDS011;16776;50.958;10.994;2022-09-28T12:58:51;0.10;;;0.10;;
29906;SDS011;16776;50.958;10.994;2022-09-28T13:04:28;0.50;;;0.50;;
29906;SDS011;16776;50.958;10.994;2022-09-28T13:07:08;0.20;;;0.20;;
29906;SDS011;16776;50.958;10.994;2022-09-28T13:09:44;0.75;;;0.45;;
29906;SDS011;16776;50.958;10.994;2022-09-28T13:12:21;0.10;;;0.10;;
29906;SDS011;16776;50.958;10.994;2022-09-28T13:18:10;0.17;;;0.17;;
29906;SDS011;16776;50.958;10.994;2022-09-28T13:20:49;0.35;;;0.20;;
29906;SDS011;16776;50.958;10.994;2022-09-28T13:23:24;0.20;;;0.20;;
29906;SDS011;16776;50.958;10.994;2022-09-28T13:25:56;0.20;;;0.20;;
29906;SDS011;16776;50.958;10.994;2022-09-28T13:28:28;0.30;;;0.30;;
29906;SDS011;16776;50.958;10.994;2022-09-28T13:30:57;1.10;;;0.30;;
29906;SDS011;16776;50.958;10.994;2022-09-28T13:33:28;0.35;;;0.30;;
29906;SDS011;16776;50.958;10.994;2022-09-28T13:36:01;0.20;;;0.20;;
29906;SDS011;16776;50.958;10.994;2022-09-28T13:38:29;0.10;;;0.10;;
29906;SDS011;16776;50.958;10.994;2022-09-28T13:41:15;0.20;;;0.20;;
29906;SDS011;16776;50.958;10.994;2022-09-28T13:46:46;0.20;;;0.17;;
29906;SDS011;16776;50.958;10.994;2022-09-28T13:49:24;0.32;;;0.32;;
29906;SDS011;16776;50.958;10.994;2022-09-28T13:52:03;0.20;;;0.20;;
29906;SDS011;16776;50.958;10.994;2022-09-28T13:54:50;0.20;;;0.20;;
29906;SDS011;16776;50.958;10.994;2022-09-28T13:57:25;1.95;;;0.60;;
29906;SDS011;16776;50.958;10.994;2022-09-28T13:59:58;0.30;;;0.30;;
29906;SDS011;16776;50.958;10.994;2022-09-28T14:02:34;0.40;;;0.30;;
29906;SDS011;16776;50.958;10.994;2022-09-28T14:05:06;0.30;;;0.30;;
29906;SDS011;16776;50.958;10.994;2022-09-28T14:08:22;1.02;;;0.43;;
29906;SDS011;16776;50.958;10.994;2022-09-28T14:10:53;0.13;;;0.13;;
29906;SDS011;16776;50.958;10.994;2022-09-28T14:16:26;0.45;;;0.40;;
29906;SDS011;16776;50.958;10.994;2022-09-28T14:18:55;0.43;;;0.43;;
29906;SDS011;16776;50.958;10.994;2022-09-28T14:24:39;0.30;;;0.30;;
29906;SDS011;16776;50.958;10.994;2022-09-28T14:30:34;0.47;;;0.40;;
29906;SDS011;16776;50.958;10.994;2022-09-28T14:33:14;0.60;;;0.60;;
29906;SDS011;16776;50.958;10.994;2022-09-28T14:35:48;0.40;;;0.40;;
29906;SDS011;16776;50.958;10.994;2022-09-28T14:38:20;0.55;;;0.55;;
29906;SDS011;16776;50.958;10.994;2022-09-28T14:41:09;0.43;;;0.43;;
29906;SDS011;16776;50.958;10.994;2022-09-28T14:43:57;0.30;;;0.30;;
29906;SDS011;16776;50.958;10.994;2022-09-28T14:46:31;0.38;;;0.38;;
29906;SDS011;16776;50.958;10.994;2022-09-28T14:49:03;0.30;;;0.30;;
29906;SDS011;16776;50.958;10.994;2022-09-28T14:51:56;1.52;;;0.60;;
29906;SDS011;16776;50.958;10.994;2022-09-28T14:54:33;0.52;;;0.35;;
29906;SDS011;16776;50.958;10.994;2022-09-28T14:57:14;0.40;;;0.40;;
29906;SDS011;16776;50.958;10.994;2022-09-28T14:59:43;0.30;;;0.30;;
29906;SDS011;16776;50.958;10.994;2022-09-28T15:02:17;0.30;;;0.30;;
29906;SDS011;16776;50.958;10.994;2022-09-28T15:04:59;0.30;;;0.30;;
29906;SDS011;16776;50.958;10.994;2022-09-28T15:07:41;0.28;;;0.28;;
29906;SDS011;16776;50.958;10.994;2022-09-28T15:10:13;0.50;;;0.40;;
29906;SDS011;16776;50.958;10.994;2022-09-28T15:12:48;0.20;;;0.20;;
29906;SDS011;16776;50.958;10.994;2022-09-28T15:15:21;0.30;;;0.30;;
29906;SDS011;16776;50.958;10.994;2022-09-28T15:18:01;0.20;;;0.20;;
29906;SDS011;16776;50.958;10.994;2022-09-28T15:20:41;0.25;;;0.25;;
29906;SDS011;16776;50.958;10.994;2022-09-28T15:23:22;0.25;;;0.25;;
29906;SDS011;16776;50.958;10.994;2022-09-28T15:25:51;0.28;;;0.28;;
29906;SDS011;16776;50.958;10.994;2022-09-28T15:28:20;0.30;;;0.30;;
29906;SDS011;16776;50.958;10.994;2022-09-28T15:30:48;0.95;;;0.50;;
29906;SDS011;16776;50.958;10.994;2022-09-28T15:33:22;0.35;;;0.35;;
29906;SDS011;16776;50.958;10.994;2022-09-28T15:36:08;0.40;;;0.30;;
29906;SDS011;16776;50.958;10.994;2022-09-28T15:38:42;1.55;;;0.40;;
29906;SDS011;16776;50.958;10.994;2022-09-28T15:41:12;0.20;;;0.20;;
29906;SDS011;16776;50.958;10.994;2022-09-28T15:43:40;0.30;;;0.30;;
29906;SDS011;16776;50.958;10.994;2022-09-28T15:46:07;0.68;;;0.40;;
29906;SDS011;16776;50.958;10.994;2022-09-28T15:48:44;0.25;;;0.13;;